Time;durP1;ratioP1;P1;durP2;ratioP2;P2;SDS_P1;SDS_P2;PMS_P1;PMS_P2;Temp;Humidity;BMP_temperature;BMP_pressure;BME280_temperature;BME280_humidity;BME280_pressure;Samples;Min_cycle;Max_cycle;Signal;HPM_P1;HPM_P2
2024/02/23 00:01:14;;;;;;;3.43;1.17;;;22.40;63.10;;;;;;5117873;28;20443;-86
2024/02/23 00:03:40;;;;;;;3.17;1.33;;;22.40;63.00;;;;;;5118148;28;20615;-95
2024/02/23 00:06:08;;;;;;;2.30;1.10;;;22.40;63.00;;;;;;5117813;28;20435;-87
2024/02/23 00:08:35;;;;;;;3.00;1.20;;;22.40;63.10;;;;;;5117610;28;20446;-94
2024/02/23 00:11:02;;;;;;;3.87;1.53;;;22.40;63.10;;;;;;5117569;28;20435;-86
2024/02/23 00:13:29;;;;;;;2.63;1.50;;;22.40;63.10;;;;;;5117648;28;20431;-94
2024/02/23 00:15:57;;;;;;;4.30;1.80;;;22.40;63.00;;;;;;5117808;28;20577;-95
2024/02/23 00:18:24;;;;;;;2.43;1.10;;;22.40;63.10;;;;;;5121716;28;20439;-85
2024/02/23 00:20:51;;;;;;;2.73;1.20;;;22.30;62.90;;;;;;5128090;28;20494;-86
2024/02/23 00:23:19;;;;;;;3.87;1.60;;;22.30;62.90;;;;;;5124224;28;20480;-86
2024/02/23 00:25:46;;;;;;;3.10;1.20;;;22.30;62.90;;;;;;5117756;28;20435;-91
2024/02/23 00:28:13;;;;;;;2.40;1.20;;;22.30;62.90;;;;;;5117794;28;20866;-86
2024/02/23 00:30:39;;;;;;;2.63;0.90;;;22.30;62.80;;;;;;5117056;28;20473;-87
2024/02/23 00:33:07;;;;;;;1.90;1.10;;;22.30;62.90;;;;;;5117025;28;20465;-87
2024/02/23 00:35:34;;;;;;;3.70;1.13;;;22.40;63.10;;;;;;5117978;28;20501;-87
2024/02/23 00:38:01;;;;;;;3.27;1.40;;;22.20;62.80;;;;;;5117216;28;20442;-86
2024/02/23 00:40:28;;;;;;;2.13;1.10;;;22.20;62.90;;;;;;5116844;28;20526;-88
2024/02/23 00:42:54;;;;;;;2.57;1.13;;;22.30;62.90;;;;;;5116774;28;20435;-86
2024/02/23 00:45:21;;;;;;;1.70;1.00;;;22.20;62.80;;;;;;5117203;28;20530;-94
2024/02/23 00:47:48;;;;;;;2.37;1.00;;;22.20;62.70;;;;;;5116846;28;20439;-93
2024/02/23 00:50:16;;;;;;;2.70;1.30;;;22.20;62.80;;;;;;5117024;28;20522;-95
2024/02/23 00:52:43;;;;;;;3.60;1.43;;;22.20;62.70;;;;;;5117451;28;20531;-87
2024/02/23 00:55:10;;;;;;;3.03;1.00;;;22.20;62.70;;;;;;5116793;28;20482;-95
2024/02/23 00:57:38;;;;;;;2.87;1.10;;;22.20;62.80;;;;;;5116951;28;20443;-93
2024/02/23 01:00:09;;;;;;;1.47;0.83;;;22.20;62.80;;;;;;5117065;28;20435;-89
2024/02/23 01:02:35;;;;;;;1.87;1.27;;;22.20;62.80;;;;;;5117422;28;20902;-87
2024/02/23 01:05:02;;;;;;;3.53;1.30;;;22.20;62.70;;;;;;5116742;28;20438;-95
2024/02/23 01:07:30;;;;;;;1.93;1.03;;;22.10;62.70;;;;;;5117174;28;20434;-86
2024/02/23 01:09:58;;;;;;;3.00;1.10;;;22.10;62.60;;;;;;5116335;28;20509;-86
2024/02/23 01:12:25;;;;;;;2.50;1.30;;;22.10;62.60;;;;;;5116331;28;20470;-86
2024/02/23 01:14:52;;;;;;;1.63;0.77;;;22.10;62.60;;;;;;5116292;28;20557;-86
2024/02/23 01:17:19;;;;;;;2.07;1.00;;;22.10;62.60;;;;;;5116148;28;20442;-87
2024/02/23 01:19:45;;;;;;;1.90;0.90;;;22.10;62.50;;;;;;5115930;28;20461;-87
2024/02/23 01:22:14;;;;;;;1.90;0.90;;;22.20;62.70;;;;;;5117127;28;20435;-95
2024/02/23 01:24:42;;;;;;;2.00;1.00;;;22.10;62.50;;;;;;5116797;28;20937;-87
2024/02/23 01:27:09;;;;;;;2.23;1.23;;;22.10;62.40;;;;;;5125261;28;20461;-86
2024/02/23 01:29:36;;;;;;;2.40;1.10;;;22.10;62.50;;;;;;5126049;28;20435;-86
2024/02/23 01:32:03;;;;;;;2.03;0.90;;;22.10;62.50;;;;;;5128339;28;20510;-87
2024/02/23 01:34:30;;;;;;;2.70;1.13;;;22.10;62.50;;;;;;5123656;28;20545;-94
2024/02/23 01:36:56;;;;;;;2.00;0.90;;;22.10;62.40;;;;;;5117484;28;20435;-86
2024/02/23 01:39:23;;;;;;;1.77;0.97;;;22.10;62.40;;;;;;5117203;28;20441;-86
2024/02/23 01:41:51;;;;;;;1.60;0.90;;;22.00;62.30;;;;;;5116131;28;21021;-87
2024/02/23 01:44:20;;;;;;;2.00;0.97;;;22.10;62.40;;;;;;5116085;28;20531;-87
2024/02/23 01:46:47;;;;;;;2.70;1.53;;;22.00;62.20;;;;;;5116018;28;20435;-86
2024/02/23 01:49:17;;;;;;;2.30;1.10;;;22.10;62.40;;;;;;5116772;28;20480;-96
2024/02/23 01:51:44;;;;;;;1.90;1.07;;;22.10;62.40;;;;;;5132423;28;20427;-86
2024/02/23 01:54:11;;;;;;;1.80;1.00;;;22.00;62.30;;;;;;5139587;28;20483;-86
2024/02/23 01:56:39;;;;;;;2.13;0.90;;;22.00;62.20;;;;;;5126005;28;20840;-86
2024/02/23 01:59:08;;;;;;;1.60;0.80;;;22.00;62.30;;;;;;5115971;28;20443;-94
2024/02/23 02:01:35;;;;;;;1.63;0.90;;;22.00;62.20;;;;;;5116886;28;20438;-86
2024/02/23 02:04:02;;;;;;;1.80;0.83;;;22.00;62.30;;;;;;5115486;28;20459;-87
2024/02/23 02:06:28;;;;;;;2.00;0.80;;;22.00;62.60;;;;;;5116161;28;20430;-87
2024/02/23 02:08:55;;;;;;;1.70;0.90;;;22.00;62.20;;;;;;5115738;28;20441;-87
2024/02/23 02:11:22;;;;;;;2.90;0.90;;;22.00;62.20;;;;;;5116132;28;20537;-88
2024/02/23 02:13:49;;;;;;;2.27;0.90;;;22.00;62.10;;;;;;5115469;28;20880;-87
2024/02/23 02:16:17;;;;;;;1.50;0.83;;;22.00;62.20;;;;;;5115462;28;20817;-84
2024/02/23 02:18:45;;;;;;;1.90;0.83;;;22.00;62.20;;;;;;5115185;28;20441;-95
2024/02/23 02:21:12;;;;;;;2.57;1.00;;;22.00;62.20;;;;;;5116002;28;20438;-96
2024/02/23 02:23:40;;;;;;;2.10;0.80;;;21.90;62.10;;;;;;5115213;28;20464;-88
2024/02/23 02:26:07;;;;;;;1.97;0.80;;;21.90;62.10;;;;;;5115861;28;20431;-91
2024/02/23 02:28:34;;;;;;;2.00;1.00;;;21.90;62.10;;;;;;5115756;28;20426;-91
2024/02/23 02:31:01;;;;;;;2.00;1.00;;;21.90;62.10;;;;;;5118863;28;20472;-94
2024/02/23 02:33:29;;;;;;;2.20;1.00;;;21.90;62.20;;;;;;5115315;28;20486;-88
2024/02/23 02:35:56;;;;;;;3.10;1.20;;;22.00;62.50;;;;;;5115400;28;20493;-86
2024/02/23 02:38:22;;;;;;;2.07;1.00;;;21.90;62.30;;;;;;5115599;28;20441;-95
2024/02/23 02:40:49;;;;;;;2.00;1.00;;;21.90;62.80;;;;;;5114693;28;20951;-86
2024/02/23 02:43:16;;;;;;;3.80;1.23;;;22.00;63.00;;;;;;5113892;28;20959;-84
2024/02/23 02:45:43;;;;;;;3.27;1.23;;;21.90;62.20;;;;;;5114161;28;20439;-84
2024/02/23 02:48:10;;;;;;;3.60;1.33;;;21.90;62.40;;;;;;5113804;28;20443;-84
2024/02/23 02:50:39;;;;;;;4.70;1.50;;;21.90;62.80;;;;;;5114229;28;20788;-83
2024/02/23 02:53:05;;;;;;;5.93;1.10;;;21.90;62.30;;;;;;5113988;28;20438;-83
2024/02/23 02:55:32;;;;;;;3.97;1.37;;;21.80;62.60;;;;;;5114078;28;20482;-90
2024/02/23 02:57:59;;;;;;;2.20;1.20;;;21.90;62.80;;;;;;5105687;28;20443;-85
2024/02/23 03:00:26;;;;;;;1.90;1.00;;;21.80;62.70;;;;;;5093647;28;20432;-82
2024/02/23 03:02:53;;;;;;;4.27;1.90;;;21.80;62.90;;;;;;5093657;28;20456;-83
2024/02/23 03:05:20;;;;;;;4.97;0.97;;;21.80;57.50;;;;;;5093777;28;20442;-81
2024/02/23 03:07:48;;;;;;;6.80;1.27;;;21.70;57.70;;;;;;5092291;28;20745;-83
2024/02/23 03:10:16;;;;;;;3.20;1.17;;;21.60;57.50;;;;;;5093308;28;20775;-85
2024/02/23 03:12:42;;;;;;;1.90;0.83;;;21.60;59.20;;;;;;5093166;28;20522;-85
2024/02/23 03:15:11;;;;;;;5.23;1.17;;;21.60;60.70;;;;;;5093128;28;20450;-85
2024/02/23 03:17:39;;;;;;;2.77;1.13;;;21.60;61.10;;;;;;5093087;28;20856;-85
2024/02/23 03:20:08;;;;;;;2.33;1.00;;;21.70;61.40;;;;;;5093186;28;20440;-84
2024/02/23 03:22:35;;;;;;;1.70;0.80;;;21.60;61.20;;;;;;5092533;28;20432;-83
2024/02/23 03:25:07;;;;;;;3.10;1.10;;;21.70;61.50;;;;;;5094138;28;20518;-84
2024/02/23 03:27:35;;;;;;;4.33;1.43;;;21.70;61.60;;;;;;5094756;28;20530;-84
2024/02/23 03:30:01;;;;;;;5.03;1.00;;;21.70;61.60;;;;;;5093229;28;20440;-85
2024/02/23 03:32:28;;;;;;;2.10;1.07;;;21.70;61.60;;;;;;5090649;28;20431;-84
2024/02/23 03:34:55;;;;;;;1.63;0.80;;;21.70;61.60;;;;;;5090903;28;20435;-84
2024/02/23 03:37:22;;;;;;;4.10;1.00;;;21.70;61.60;;;;;;5091376;28;20436;-84
2024/02/23 03:39:49;;;;;;;2.17;1.13;;;21.70;61.60;;;;;;5091116;28;20829;-84
2024/02/23 03:42:17;;;;;;;3.30;1.30;;;21.70;61.60;;;;;;5091904;28;20565;-85
2024/02/23 03:44:44;;;;;;;5.17;1.10;;;21.80;61.80;;;;;;5095097;28;20975;-85
2024/02/23 03:47:12;;;;;;;4.70;1.20;;;21.70;61.60;;;;;;5096146;28;20446;-90
2024/02/23 03:49:38;;;;;;;4.40;1.10;;;21.70;61.60;;;;;;5096463;28;20446;-84
2024/02/23 03:52:06;;;;;;;3.60;0.83;;;21.70;61.60;;;;;;5096351;28;20436;-84
2024/02/23 03:54:32;;;;;;;3.10;0.93;;;21.70;61.60;;;;;;5096423;28;20942;-84
2024/02/23 03:56:59;;;;;;;3.93;1.07;;;21.70;61.60;;;;;;5096506;28;20483;-84
2024/02/23 03:59:29;;;;;;;1.70;0.90;;;21.70;61.70;;;;;;5096213;28;20436;-84
2024/02/23 04:01:56;;;;;;;3.30;0.90;;;21.70;61.50;;;;;;5096697;28;20439;-84
2024/02/23 04:04:23;;;;;;;2.90;0.87;;;21.70;61.60;;;;;;5096134;28;20451;-85
2024/02/23 04:06:49;;;;;;;4.63;1.30;;;21.70;61.60;;;;;;5095941;28;20527;-85
2024/02/23 04:09:16;;;;;;;3.63;1.13;;;21.60;61.50;;;;;;5096161;28;20436;-85
2024/02/23 04:11:43;;;;;;;2.13;0.90;;;21.60;61.50;;;;;;5095972;28;20451;-84
2024/02/23 04:14:10;;;;;;;2.77;0.97;;;21.60;61.50;;;;;;5095934;28;20519;-90
2024/02/23 04:16:38;;;;;;;3.10;0.90;;;21.60;61.70;;;;;;5095600;28;21001;-84
2024/02/23 04:19:05;;;;;;;2.20;1.10;;;21.60;61.50;;;;;;5095944;28;20523;-84
2024/02/23 04:21:32;;;;;;;2.43;0.80;;;21.60;61.50;;;;;;5095923;28;20431;-85
2024/02/23 04:23:58;;;;;;;2.13;1.00;;;21.60;61.50;;;;;;5095527;28;20442;-84
2024/02/23 04:26:25;;;;;;;3.13;1.10;;;21.60;61.60;;;;;;5095791;28;20440;-84
2024/02/23 04:28:52;;;;;;;3.70;1.43;;;21.60;61.50;;;;;;5095822;28;20526;-84
2024/02/23 04:31:19;;;;;;;2.43;0.97;;;21.60;61.60;;;;;;5095609;28;20471;-84
2024/02/23 04:33:47;;;;;;;1.90;1.00;;;21.70;61.70;;;;;;5095755;28;20455;-84
2024/02/23 04:36:14;;;;;;;3.20;1.10;;;21.60;61.60;;;;;;5095838;28;20600;-84
2024/02/23 04:38:41;;;;;;;2.10;0.80;;;21.60;61.50;;;;;;5095448;28;20439;-85
2024/02/23 04:41:08;;;;;;;1.90;1.00;;;21.60;61.60;;;;;;5095630;28;20443;-84
2024/02/23 04:43:34;;;;;;;5.10;1.20;;;21.60;61.50;;;;;;5095244;28;20442;-84
2024/02/23 04:46:01;;;;;;;1.80;1.00;;;21.60;61.50;;;;;;5095547;28;21004;-84
2024/02/23 04:48:30;;;;;;;3.33;1.00;;;21.60;61.50;;;;;;5095969;28;20436;-84
2024/02/23 04:50:59;;;;;;;1.83;0.97;;;21.60;61.50;;;;;;5096109;28;20953;-84
2024/02/23 04:53:25;;;;;;;1.60;0.90;;;21.60;62.40;;;;;;5094612;28;20930;-84
2024/02/23 04:55:53;;;;;;;2.23;1.00;;;21.60;61.50;;;;;;5094811;28;20479;-85
2024/02/23 04:58:20;;;;;;;3.33;0.93;;;21.60;61.50;;;;;;5095488;28;20956;-85
2024/02/23 05:00:47;;;;;;;2.67;1.00;;;21.60;61.50;;;;;;5104911;28;20495;-86
2024/02/23 05:03:15;;;;;;;1.80;0.87;;;21.50;61.40;;;;;;5119858;28;20494;-89
2024/02/23 05:05:42;;;;;;;2.03;1.00;;;21.60;61.40;;;;;;5113662;28;20920;-84
2024/02/23 05:08:10;;;;;;;2.23;0.90;;;21.50;61.40;;;;;;5095216;28;21036;-84
2024/02/23 05:10:37;;;;;;;1.93;0.90;;;21.60;61.50;;;;;;5095145;28;20804;-90
2024/02/23 05:13:05;;;;;;;1.73;1.00;;;21.50;61.30;;;;;;5095246;28;20432;-85
2024/02/23 05:15:32;;;;;;;2.20;1.00;;;21.50;61.40;;;;;;5095009;28;20438;-86
2024/02/23 05:17:59;;;;;;;1.73;0.90;;;21.50;61.40;;;;;;5094864;28;20440;-85
2024/02/23 05:20:25;;;;;;;1.93;0.80;;;21.50;61.40;;;;;;5095003;28;20891;-86
2024/02/23 05:22:51;;;;;;;2.03;1.20;;;21.50;61.30;;;;;;5094705;28;20451;-85
2024/02/23 05:25:19;;;;;;;1.90;0.90;;;21.50;61.40;;;;;;5094941;28;20970;-85
2024/02/23 05:27:46;;;;;;;2.27;0.90;;;21.50;61.30;;;;;;5094911;28;20193;-85
2024/02/23 05:30:14;;;;;;;1.77;1.00;;;21.60;61.50;;;;;;5094570;28;20895;-84
2024/02/23 05:32:41;;;;;;;2.70;0.90;;;21.50;61.30;;;;;;5094586;28;20459;-85
2024/02/23 05:35:08;;;;;;;1.40;0.80;;;21.50;61.20;;;;;;5094437;28;20432;-84
2024/02/23 05:37:36;;;;;;;1.90;0.90;;;21.60;61.50;;;;;;5094593;28;20487;-85
2024/02/23 05:40:10;;;;;;;2.43;0.90;;;21.50;61.30;;;;;;5094620;28;20798;-89
2024/02/23 05:42:38;;;;;;;7.33;0.90;;;21.50;61.30;;;;;;5094311;28;20439;-87
2024/02/23 05:45:08;;;;;;;1.93;0.90;;;21.50;61.30;;;;;;5094652;28;20440;-84
2024/02/23 05:47:35;;;;;;;1.50;0.70;;;21.50;61.20;;;;;;5094338;28;20435;-89
2024/02/23 05:50:02;;;;;;;4.20;1.17;;;21.50;61.20;;;;;;5094360;28;20436;-85
2024/02/23 05:52:29;;;;;;;1.67;0.80;;;21.50;61.40;;;;;;5094247;28;20432;-86
2024/02/23 05:54:57;;;;;;;2.30;1.20;;;21.50;61.30;;;;;;5094437;28;20435;-86
2024/02/23 05:57:24;;;;;;;2.90;0.80;;;21.50;61.20;;;;;;5094144;28;20487;-86
2024/02/23 05:59:52;;;;;;;1.80;0.93;;;21.50;61.30;;;;;;5094424;28;20442;-86
2024/02/23 06:02:19;;;;;;;1.60;0.77;;;21.40;61.10;;;;;;5094188;28;20442;-86
2024/02/23 06:04:45;;;;;;;2.10;0.80;;;21.50;61.20;;;;;;5094226;28;20435;-85
2024/02/23 06:07:12;;;;;;;1.60;0.90;;;21.40;61.10;;;;;;5099352;28;20427;-86
2024/02/23 06:09:39;;;;;;;3.00;0.90;;;21.40;61.20;;;;;;5098893;28;20435;-85
2024/02/23 06:12:07;;;;;;;1.67;0.80;;;21.50;61.20;;;;;;5102164;28;20439;-86
2024/02/23 06:14:34;;;;;;;1.70;0.73;;;21.40;61.00;;;;;;5094739;28;20427;-84
2024/02/23 06:17:02;;;;;;;1.67;0.87;;;21.40;61.10;;;;;;5094295;28;20479;-90
2024/02/23 06:19:29;;;;;;;3.97;0.90;;;21.40;61.10;;;;;;5094097;28;20527;-86
2024/02/23 06:21:56;;;;;;;2.70;0.90;;;21.40;61.10;;;;;;5093920;28;20518;-86
2024/02/23 06:24:23;;;;;;;2.53;1.17;;;21.40;61.00;;;;;;5093794;28;20435;-85
2024/02/23 06:26:51;;;;;;;1.80;0.70;;;21.40;61.10;;;;;;5094071;28;20447;-90
2024/02/23 06:29:18;;;;;;;2.43;0.70;;;21.40;61.10;;;;;;5093687;28;20900;-84
2024/02/23 06:31:49;;;;;;;1.80;0.90;;;21.40;61.20;;;;;;5093582;28;20463;-85
2024/02/23 06:34:17;;;;;;;2.20;0.90;;;21.50;62.10;;;;;;5096105;28;20458;-84
2024/02/23 06:36:44;;;;;;;2.10;1.37;;;21.40;61.20;;;;;;5095831;28;20482;-85
2024/02/23 06:39:11;;;;;;;1.90;0.70;;;21.40;61.20;;;;;;5093497;28;20458;-84
2024/02/23 06:41:39;;;;;;;1.80;0.93;;;21.40;61.20;;;;;;5093489;28;20827;-83
2024/02/23 06:44:06;;;;;;;2.07;1.10;;;21.40;61.20;;;;;;5093709;28;20439;-85
2024/02/23 06:46:33;;;;;;;1.53;0.80;;;21.40;61.10;;;;;;5093345;28;20435;-88
2024/02/23 06:49:00;;;;;;;1.70;0.80;;;21.40;61.20;;;;;;5093554;28;20447;-84
2024/02/23 06:51:28;;;;;;;1.73;0.90;;;21.30;60.90;;;;;;5093646;28;20796;-87
2024/02/23 06:53:56;;;;;;;2.33;0.93;;;21.40;61.10;;;;;;5093878;28;20432;-85
2024/02/23 06:56:23;;;;;;;5.60;0.90;;;21.30;60.90;;;;;;5093457;28;20475;-85
2024/02/23 06:58:50;;;;;;;1.87;0.90;;;21.30;60.90;;;;;;5093448;28;20432;-87
2024/02/23 07:01:16;;;;;;;1.67;0.93;;;21.30;60.90;;;;;;5093418;28;20437;-85
2024/02/23 07:03:45;;;;;;;1.67;0.73;;;21.40;61.10;;;;;;5093148;28;20891;-85
2024/02/23 07:06:11;;;;;;;2.10;0.80;;;21.30;60.90;;;;;;5093544;28;20443;-86
2024/02/23 07:08:39;;;;;;;3.00;0.87;;;21.30;60.90;;;;;;5093310;28;20436;-86
2024/02/23 07:11:06;;;;;;;1.70;0.90;;;21.30;60.90;;;;;;5093149;28;20926;-87
2024/02/23 07:13:33;;;;;;;1.70;0.80;;;21.40;61.00;;;;;;5093223;28;20865;-84
2024/02/23 07:16:01;;;;;;;1.60;0.80;;;21.30;60.80;;;;;;5093342;28;20439;-85
2024/02/23 07:18:28;;;;;;;1.57;0.70;;;21.30;60.90;;;;;;5095926;28;20499;-89
2024/02/23 07:20:55;;;;;;;1.93;0.77;;;21.30;60.80;;;;;;5096951;28;20605;-85
2024/02/23 07:23:22;;;;;;;1.50;0.70;;;21.20;60.80;;;;;;5096926;28;20443;-85
2024/02/23 07:25:51;;;;;;;2.37;1.00;;;21.30;60.90;;;;;;5096823;28;20435;-84
2024/02/23 07:28:19;;;;;;;1.40;0.63;;;21.30;60.90;;;;;;5097290;28;20462;-91
2024/02/23 07:30:46;;;;;;;2.30;0.80;;;21.30;60.80;;;;;;5096757;28;20981;-85
2024/02/23 07:33:13;;;;;;;1.87;0.90;;;21.30;60.80;;;;;;5096554;28;20451;-85
2024/02/23 07:35:40;;;;;;;2.27;1.00;;;21.30;60.80;;;;;;5096959;28;20431;-88
2024/02/23 07:38:07;;;;;;;2.10;0.90;;;21.30;60.80;;;;;;5096930;28;20483;-85
2024/02/23 07:40:33;;;;;;;2.00;0.80;;;21.30;60.70;;;;;;5096918;28;20435;-85
2024/02/23 07:43:01;;;;;;;1.77;0.80;;;21.30;60.70;;;;;;5096932;28;20516;-85
2024/02/23 07:45:28;;;;;;;1.90;0.80;;;21.30;60.70;;;;;;5096823;28;20439;-84
2024/02/23 07:47:55;;;;;;;1.90;0.73;;;21.30;60.70;;;;;;5096946;28;20438;-85
2024/02/23 07:50:22;;;;;;;2.30;0.90;;;21.30;60.70;;;;;;5096548;28;20989;-86
2024/02/23 07:52:48;;;;;;;2.37;0.80;;;21.30;60.70;;;;;;5096417;28;20948;-89
2024/02/23 07:55:16;;;;;;;1.80;0.93;;;21.30;60.70;;;;;;5096629;28;20499;-84
2024/02/23 07:57:43;;;;;;;1.90;0.77;;;21.30;60.70;;;;;;5096240;28;20844;-89
2024/02/23 08:00:12;;;;;;;2.00;0.90;;;21.30;60.70;;;;;;5096563;28;20527;-84
2024/02/23 08:02:38;;;;;;;1.50;0.70;;;21.30;60.70;;;;;;5097641;28;20451;-84
2024/02/23 08:05:06;;;;;;;1.70;0.80;;;21.30;60.70;;;;;;5096381;28;20432;-84
2024/02/23 08:07:33;;;;;;;1.40;0.70;;;21.30;60.60;;;;;;5096275;28;20930;-84
2024/02/23 08:10:00;;;;;;;2.77;0.87;;;21.30;60.50;;;;;;5114479;28;20482;-88
2024/02/23 08:12:27;;;;;;;1.50;0.80;;;21.30;60.60;;;;;;5121039;28;20428;-86
2024/02/23 08:14:54;;;;;;;1.40;0.70;;;21.30;60.60;;;;;;5105492;28;20423;-85
2024/02/23 08:17:22;;;;;;;1.73;0.90;;;21.30;60.60;;;;;;5095925;28;20475;-85
2024/02/23 08:19:49;;;;;;;1.80;1.10;;;21.30;60.50;;;;;;5095940;28;20442;-85
2024/02/23 08:22:15;;;;;;;1.40;0.60;;;21.30;60.40;;;;;;5095559;28;20442;-85
2024/02/23 08:24:42;;;;;;;1.70;0.90;;;21.30;61.30;;;;;;5095535;28;20530;-84
2024/02/23 08:27:09;;;;;;;1.70;0.70;;;21.30;60.40;;;;;;5095606;28;20432;-85
2024/02/23 08:29:39;;;;;;;1.40;0.70;;;21.40;60.50;;;;;;5095688;28;20440;-85
2024/02/23 08:32:06;;;;;;;2.00;0.80;;;21.30;60.40;;;;;;5095358;28;20490;-85
2024/02/23 08:34:35;;;;;;;2.07;0.80;;;21.40;60.40;;;;;;5095594;28;20843;-85
2024/02/23 08:37:02;;;;;;;1.50;0.80;;;21.30;60.30;;;;;;5095593;28;21085;-85
2024/02/23 08:39:29;;;;;;;2.03;1.10;;;21.30;60.20;;;;;;5095567;28;20444;-84
2024/02/23 08:41:56;;;;;;;1.73;0.90;;;21.30;60.20;;;;;;5095470;28;20523;-85
2024/02/23 08:44:22;;;;;;;1.93;0.90;;;21.30;60.20;;;;;;5095484;28;20431;-84
2024/02/23 08:46:49;;;;;;;1.70;1.00;;;21.30;60.20;;;;;;5095202;28;20463;-84
2024/02/23 08:49:16;;;;;;;1.40;0.70;;;21.30;60.20;;;;;;5095376;28;20432;-84
2024/02/23 08:51:44;;;;;;;1.40;0.70;;;21.30;60.30;;;;;;5095310;28;20442;-87
2024/02/23 08:54:11;;;;;;;1.67;0.67;;;21.40;60.40;;;;;;5095086;28;20882;-87
2024/02/23 08:56:39;;;;;;;2.60;0.90;;;21.30;60.10;;;;;;5093891;28;20439;-85
2024/02/23 08:59:06;;;;;;;2.23;0.80;;;21.30;60.10;;;;;;5095081;28;20436;-85
2024/02/23 09:01:33;;;;;;;1.60;0.87;;;21.30;60.10;;;;;;5094975;28;20450;-86
2024/02/23 09:04:00;;;;;;;2.67;0.70;;;21.30;60.20;;;;;;5094990;28;20455;-84
2024/02/23 09:06:27;;;;;;;1.50;0.80;;;21.30;60.20;;;;;;5094803;28;20439;-84
2024/02/23 09:08:55;;;;;;;1.40;0.70;;;21.30;60.10;;;;;;5094970;28;20436;-85
2024/02/23 09:11:23;;;;;;;3.40;1.00;;;21.30;60.00;;;;;;5094695;28;20466;-85
2024/02/23 09:13:50;;;;;;;1.70;0.80;;;21.30;60.10;;;;;;5094622;28;20522;-84
2024/02/23 09:16:17;;;;;;;1.67;0.80;;;21.30;60.10;;;;;;5094862;28;20438;-85
2024/02/23 09:18:44;;;;;;;1.70;0.80;;;21.30;60.10;;;;;;5094725;28;21005;-85
2024/02/23 09:21:10;;;;;;;1.40;0.70;;;21.30;60.10;;;;;;5094668;28;20435;-84
2024/02/23 09:23:36;;;;;;;3.00;1.17;;;21.30;60.10;;;;;;5094502;28;20795;-84
2024/02/23 09:26:09;;;;;;;1.50;0.80;;;21.30;60.10;;;;;;5094796;28;20200;-84
2024/02/23 09:28:36;;;;;;;1.80;0.93;;;21.30;60.10;;;;;;5094548;28;20788;-84
2024/02/23 09:31:04;;;;;;;1.40;0.70;;;21.30;60.20;;;;;;5094186;28;20474;-89
2024/02/23 09:33:31;;;;;;;1.60;0.87;;;21.30;60.30;;;;;;5094191;28;20868;-84
2024/02/23 09:35:58;;;;;;;4.37;0.73;;;21.30;60.10;;;;;;5094328;28;20581;-84
2024/02/23 09:38:25;;;;;;;1.50;0.70;;;21.30;60.10;;;;;;5094174;28;20483;-89
2024/02/23 09:40:52;;;;;;;1.80;0.90;;;21.30;60.10;;;;;;5093845;28;20436;-83
2024/02/23 09:43:23;;;;;;;1.40;0.70;;;21.30;60.10;;;;;;5096634;28;20440;-85
2024/02/23 09:45:52;;;;;;;2.47;0.93;;;21.30;60.10;;;;;;5095694;28;20458;-85
2024/02/23 09:48:20;;;;;;;1.70;0.80;;;21.30;60.20;;;;;;5094225;28;20432;-85
2024/02/23 09:50:48;;;;;;;1.87;0.90;;;21.30;60.10;;;;;;5094126;28;20428;-85
2024/02/23 09:53:15;;;;;;;1.43;0.70;;;21.30;60.20;;;;;;5094025;28;20431;-85
2024/02/23 09:55:43;;;;;;;1.60;0.70;;;21.30;60.20;;;;;;5094243;28;20439;-85
2024/02/23 09:58:13;;;;;;;2.13;0.80;;;21.30;60.20;;;;;;5094165;28;20978;-85
2024/02/23 10:00:42;;;;;;;1.60;0.70;;;21.30;60.20;;;;;;5094344;28;20492;-85
2024/02/23 10:03:09;;;;;;;1.80;0.80;;;21.30;60.10;;;;;;5093684;28;20467;-85
2024/02/23 10:05:36;;;;;;;2.47;1.07;;;21.30;60.20;;;;;;5093773;28;20749;-84
2024/02/23 10:08:03;;;;;;;1.40;0.70;;;21.30;60.00;;;;;;5095025;28;20494;-88
2024/02/23 10:10:31;;;;;;;1.50;0.70;;;21.30;60.00;;;;;;5094247;28;20861;-85
2024/02/23 10:12:58;;;;;;;1.80;0.90;;;21.30;60.10;;;;;;5094014;28;20922;-89
2024/02/23 10:15:25;;;;;;;4.70;0.80;;;21.30;60.00;;;;;;5094017;28;20436;-84
2024/02/23 10:17:54;;;;;;;1.57;0.70;;;21.30;60.30;;;;;;5093645;28;20490;-89
2024/02/23 10:20:21;;;;;;;1.63;0.83;;;21.40;60.50;;;;;;5094087;28;20435;-86
2024/02/23 10:22:48;;;;;;;1.40;0.60;;;21.40;60.40;;;;;;5093964;28;20447;-85
2024/02/23 10:25:15;;;;;;;1.60;0.83;;;21.30;60.40;;;;;;5093767;28;20496;-85
2024/02/23 10:27:42;;;;;;;1.40;0.70;;;21.40;60.40;;;;;;5093689;28;20443;-84
2024/02/23 10:30:11;;;;;;;2.40;0.87;;;21.40;60.40;;;;;;5093695;28;20435;-84
2024/02/23 10:32:39;;;;;;;1.63;1.13;;;21.30;60.40;;;;;;5093722;28;20447;-84
2024/02/23 10:35:11;;;;;;;1.73;0.80;;;21.30;60.40;;;;;;5093756;28;20431;-85
2024/02/23 10:37:38;;;;;;;1.50;0.70;;;21.30;60.40;;;;;;5093747;28;20475;-85
2024/02/23 10:40:10;;;;;;;1.80;0.80;;;21.30;60.40;;;;;;5093752;28;20442;-84
2024/02/23 10:42:38;;;;;;;2.13;0.80;;;21.30;60.50;;;;;;5094021;28;20465;-85
2024/02/23 10:45:08;;;;;;;1.87;0.80;;;21.30;60.40;;;;;;5093515;28;20435;-84
2024/02/23 10:47:36;;;;;;;1.50;0.80;;;21.30;60.30;;;;;;5093819;28;20538;-86
2024/02/23 10:50:04;;;;;;;1.70;0.80;;;21.30;60.40;;;;;;5100161;28;20454;-84
2024/02/23 10:52:34;;;;;;;1.50;0.80;;;21.30;60.40;;;;;;5107556;28;20436;-84
2024/02/23 10:55:04;;;;;;;1.60;0.80;;;21.30;60.40;;;;;;5107042;28;20435;-84
2024/02/23 10:57:31;;;;;;;1.50;0.70;;;21.30;60.40;;;;;;5106830;28;20808;-84
2024/02/23 10:59:58;;;;;;;1.70;0.90;;;21.30;60.30;;;;;;5097667;28;20436;-84
2024/02/23 11:02:29;;;;;;;1.50;0.70;;;21.30;60.30;;;;;;5097329;28;20462;-84
2024/02/23 11:04:58;;;;;;;1.57;0.73;;;21.30;60.30;;;;;;5097408;28;20446;-84
2024/02/23 11:07:27;;;;;;;1.40;0.80;;;21.20;60.20;;;;;;5097165;28;20432;-86
2024/02/23 11:10:00;;;;;;;2.13;0.80;;;21.20;60.20;;;;;;5097676;28;20788;-84
2024/02/23 11:12:30;;;;;;;1.50;0.70;;;21.30;60.40;;;;;;5097393;28;20438;-89
2024/02/23 11:14:58;;;;;;;1.50;0.70;;;21.30;60.50;;;;;;5097154;28;20439;-84
2024/02/23 11:17:28;;;;;;;1.97;0.80;;;21.30;60.60;;;;;;5110724;28;20440;-85
2024/02/23 11:19:56;;;;;;;1.50;0.80;;;21.40;60.60;;;;;;5122032;28;20453;-87
2024/02/23 11:22:27;;;;;;;2.00;0.77;;;21.30;60.40;;;;;;5112305;28;20830;-85
2024/02/23 11:25:00;;;;;;;2.03;0.93;;;21.30;60.50;;;;;;5097091;28;20989;-85
2024/02/23 11:27:31;;;;;;;1.70;0.70;;;21.30;60.50;;;;;;5097137;28;20431;-84
2024/02/23 11:30:04;;;;;;;1.60;0.70;;;21.30;60.50;;;;;;5096934;28;20526;-85
2024/02/23 11:32:40;;;;;;;2.23;0.70;;;21.30;60.50;;;;;;5096809;28;20512;-85
2024/02/23 11:35:08;;;;;;;1.40;0.60;;;21.30;60.60;;;;;;5096907;28;20527;-85
2024/02/23 11:37:46;;;;;;;1.47;0.80;;;21.30;60.60;;;;;;5096820;28;20983;-89
2024/02/23 11:40:15;;;;;;;1.87;0.80;;;21.30;60.60;;;;;;5096917;28;20431;-90
2024/02/23 11:42:43;;;;;;;1.40;0.67;;;21.30;60.70;;;;;;5096674;28;20442;-85
2024/02/23 11:45:10;;;;;;;2.83;0.93;;;21.30;60.60;;;;;;5097037;28;20427;-91
2024/02/23 11:47:37;;;;;;;1.40;0.70;;;21.30;60.60;;;;;;5096785;28;20431;-86
2024/02/23 11:50:05;;;;;;;1.40;0.73;;;21.30;60.60;;;;;;5096508;28;20858;-84
2024/02/23 11:52:33;;;;;;;1.50;0.80;;;21.20;60.40;;;;;;5096701;28;20475;-84
2024/02/23 11:55:00;;;;;;;1.30;0.60;;;21.20;60.40;;;;;;5096613;28;20434;-86
2024/02/23 11:57:28;;;;;;;2.00;0.83;;;21.20;60.50;;;;;;5096665;28;20449;-85
2024/02/23 11:59:55;;;;;;;1.87;0.80;;;21.20;60.50;;;;;;5096236;28;20498;-85
2024/02/23 12:02:22;;;;;;;1.70;0.90;;;21.20;60.50;;;;;;5096189;28;20459;-84
2024/02/23 12:04:49;;;;;;;1.73;0.80;;;21.20;60.50;;;;;;5095795;28;20438;-84
2024/02/23 12:07:16;;;;;;;1.97;0.80;;;21.30;60.60;;;;;;5096349;28;20496;-84
2024/02/23 12:09:44;;;;;;;2.17;0.80;;;21.20;60.50;;;;;;5096203;28;20435;-84
2024/02/23 12:12:10;;;;;;;1.73;0.70;;;21.20;60.40;;;;;;5095839;28;20431;-84
2024/02/23 12:14:40;;;;;;;2.00;0.90;;;21.20;60.40;;;;;;5096093;28;20439;-84
2024/02/23 12:17:09;;;;;;;1.50;0.70;;;21.20;60.50;;;;;;5096319;28;20436;-84
2024/02/23 12:19:39;;;;;;;1.40;0.60;;;21.20;60.40;;;;;;5095875;28;20483;-84
2024/02/23 12:22:05;;;;;;;1.70;0.80;;;21.20;60.40;;;;;;5096025;28;20945;-84
2024/02/23 12:24:32;;;;;;;1.40;0.70;;;21.20;60.40;;;;;;5095822;28;20432;-84
2024/02/23 12:26:59;;;;;;;1.40;0.80;;;21.30;60.50;;;;;;5095888;28;20527;-84
2024/02/23 12:29:26;;;;;;;1.60;0.70;;;21.20;60.40;;;;;;5095698;28;20431;-86
2024/02/23 12:32:03;;;;;;;1.50;0.70;;;21.20;60.40;;;;;;5095621;28;20463;-84
2024/02/23 12:34:30;;;;;;;1.70;0.80;;;21.20;60.30;;;;;;5095926;28;20519;-83
2024/02/23 12:36:57;;;;;;;2.30;0.80;;;21.20;60.30;;;;;;5095511;28;20443;-85
2024/02/23 12:39:24;;;;;;;1.87;0.80;;;21.20;61.20;;;;;;5095612;28;20575;-85
2024/02/23 12:41:51;;;;;;;1.60;0.70;;;21.20;60.40;;;;;;5095458;28;20838;-84
2024/02/23 12:44:18;;;;;;;1.40;0.60;;;21.20;60.40;;;;;;5095532;28;20423;-84
2024/02/23 12:46:45;;;;;;;1.50;0.80;;;21.20;60.30;;;;;;5095625;28;20439;-85
2024/02/23 12:49:13;;;;;;;1.50;0.70;;;21.20;60.30;;;;;;5095433;28;20442;-84